PWSweather.com
Personal Weather Stations
Station Observations
WDJH1
Il, Wood Dale, IL 60191

IlWood Dale, IL 60191

Lat: 41.9730204, Lon: -87.9791968

Elevation: 730

Station Type:

High Low Average
Temperature 56.9°F13.8°C 44.0°F6.7°C 49.2°F9.6°C
Dew Point 47.9°F8.8°C 39.5°F4.2°C 44.4°F6.9°C
Winds 17.0 mph 27.4 kmh Calm Calm 9.0 mph S14.5 kmh S
Wind Gusts 30.0 mph48.3 kmh 1.0 mph1.6 kmh 17.0 mph27.4 kmh
Humidity 99% 61% 84%
Pressure 29.49 in998.6 mb 29.38 in994.9 mb -
Precipitation 0.14 in3.6 mm - -
Hour Temp Dew Point Humidity Winds Wind Gusts Pressure Precip Precip Rate Daily Precip Total
12:00 AM 44.8°F7.1°C 44.5°F6.9°C 99% 2.0 mph NE3.2 kmh NE 6.0 mph9.7 kmh 29.48 in998.3 mb 0.03 in0.8 mm 0.00 in0.0 mm 0.03 in0.8 mm
12:15 AM 44.7°F7.1°C 44.4°F6.9°C 99% 2.0 mph ENE3.2 kmh ENE 8.0 mph12.9 kmh 29.49 in998.6 mb 0.02 in0.5 mm 0.00 in0.0 mm 0.03 in0.8 mm
12:30 AM 44.8°F7.1°C 44.5°F6.9°C 99% 3.0 mph ENE4.8 kmh ENE 7.0 mph11.3 kmh 29.48 in998.3 mb 0.02 in0.5 mm 0.00 in0.0 mm 0.04 in1.0 mm
12:45 AM 44.7°F7.1°C 44.4°F6.9°C 99% 4.0 mph NE6.4 kmh NE 8.0 mph12.9 kmh 29.45 in997.3 mb 0.01 in0.3 mm 0.00 in0.0 mm 0.04 in1.0 mm
01:00 AM 44.5°F6.9°C 44.2°F6.8°C 99% 2.0 mph ENE3.2 kmh ENE 6.0 mph9.7 kmh 29.45 in997.3 mb 0.01 in0.3 mm 0.00 in0.0 mm 0.04 in1.0 mm
01:15 AM 44.4°F6.9°C 44.1°F6.7°C 99% 2.0 mph ENE3.2 kmh ENE 5.0 mph8.0 kmh 29.44 in997.0 mb 0.01 in0.3 mm 0.00 in0.0 mm 0.04 in1.0 mm
01:30 AM 44.5°F6.9°C 44.2°F6.8°C 99% 3.0 mph E4.8 kmh E 9.0 mph14.5 kmh 29.43 in996.6 mb 0.00 in0.0 mm 0.00 in0.0 mm 0.04 in1.0 mm
01:45 AM 44.7°F7.1°C 44.4°F6.9°C 99% 1.0 mph ENE1.6 kmh ENE 4.0 mph6.4 kmh 29.43 in996.6 mb 0.00 in0.0 mm 0.00 in0.0 mm 0.04 in1.0 mm
02:00 AM 44.6°F7.0°C 44.3°F6.8°C 99% 2.0 mph ENE3.2 kmh ENE 6.0 mph9.7 kmh 29.43 in996.6 mb 0.00 in0.0 mm 0.00 in0.0 mm 0.04 in1.0 mm
02:15 AM 44.6°F7.0°C 44.3°F6.8°C 99% 2.0 mph ENE3.2 kmh ENE 6.0 mph9.7 kmh 29.41 in995.9 mb 0.00 in0.0 mm 0.00 in0.0 mm 0.04 in1.0 mm
02:30 AM 44.7°F7.1°C 44.4°F6.9°C 99% 2.0 mph E3.2 kmh E 6.0 mph9.7 kmh 29.39 in995.3 mb 0.00 in0.0 mm 0.00 in0.0 mm 0.04 in1.0 mm
02:45 AM 44.8°F7.1°C 44.5°F6.9°C 99% 1.0 mph ENE1.6 kmh ENE 5.0 mph8.0 kmh 29.39 in995.3 mb 0.00 in0.0 mm 0.00 in0.0 mm 0.04 in1.0 mm
03:00 AM 44.7°F7.1°C 44.4°F6.9°C 99% 1.0 mph ENE1.6 kmh ENE 4.0 mph6.4 kmh 29.39 in995.3 mb 0.00 in0.0 mm 0.00 in0.0 mm 0.04 in1.0 mm
03:15 AM 44.8°F7.1°C 44.5°F6.9°C 99% 1.0 mph E1.6 kmh E 2.0 mph3.2 kmh 29.40 in995.6 mb 0.00 in0.0 mm 0.00 in0.0 mm 0.04 in1.0 mm
03:30 AM 45.2°F7.3°C 44.9°F7.2°C 99% Calm Calm 1.0 mph1.6 kmh 29.40 in995.6 mb 0.00 in0.0 mm 0.00 in0.0 mm 0.04 in1.0 mm
03:45 AM 46.3°F7.9°C 46.0°F7.8°C 99% Calm Calm 1.0 mph1.6 kmh 29.40 in995.6 mb 0.00 in0.0 mm 0.00 in0.0 mm 0.04 in1.0 mm
04:00 AM 46.3°F7.9°C 46.0°F7.8°C 99% Calm Calm 1.0 mph1.6 kmh 29.41 in995.9 mb 0.00 in0.0 mm 0.00 in0.0 mm 0.04 in1.0 mm
04:15 AM 46.3°F7.9°C 46.0°F7.8°C 99% Calm Calm 1.0 mph1.6 kmh 29.41 in995.9 mb 0.00 in0.0 mm 0.00 in0.0 mm 0.04 in1.0 mm
04:30 AM 46.3°F7.9°C 46.0°F7.8°C 99% Calm Calm 1.0 mph1.6 kmh 29.40 in995.6 mb 0.00 in0.0 mm 0.00 in0.0 mm 0.04 in1.0 mm
04:45 AM 46.3°F7.9°C 46.0°F7.8°C 99% Calm Calm 1.0 mph1.6 kmh 29.41 in995.9 mb 0.00 in0.0 mm 0.00 in0.0 mm 0.04 in1.0 mm
05:00 AM 46.3°F7.9°C 46.0°F7.8°C 99% Calm Calm 1.0 mph1.6 kmh 29.42 in996.3 mb 0.00 in0.0 mm 0.00 in0.0 mm 0.04 in1.0 mm
05:15 AM 46.3°F7.9°C 46.0°F7.8°C 99% Calm Calm 1.0 mph1.6 kmh 29.42 in996.3 mb 0.00 in0.0 mm 0.00 in0.0 mm 0.04 in1.0 mm
05:30 AM 49.6°F9.8°C 47.9°F8.8°C 94% Calm Calm 1.0 mph1.6 kmh 29.43 in996.6 mb 0.00 in0.0 mm 0.00 in0.0 mm 0.04 in1.0 mm
05:45 AM 49.7°F9.8°C 47.2°F8.4°C 91% 8.0 mph SW12.9 kmh SW 13.0 mph20.9 kmh 29.43 in996.6 mb 0.00 in0.0 mm 0.00 in0.0 mm 0.04 in1.0 mm
06:00 AM 49.4°F9.7°C 46.6°F8.1°C 90% 8.0 mph SW12.9 kmh SW 13.0 mph20.9 kmh 29.44 in997.0 mb 0.00 in0.0 mm 0.00 in0.0 mm 0.04 in1.0 mm
06:15 AM 49.2°F9.6°C 45.8°F7.7°C 88% 8.0 mph SW12.9 kmh SW 14.0 mph22.5 kmh 29.44 in997.0 mb 0.00 in0.0 mm 0.00 in0.0 mm 0.04 in1.0 mm
06:30 AM 49.2°F9.6°C 45.5°F7.5°C 87% 6.0 mph SW9.7 kmh SW 12.0 mph19.3 kmh 29.44 in997.0 mb 0.00 in0.0 mm 0.00 in0.0 mm 0.04 in1.0 mm
06:45 AM 50.2°F10.1°C 45.6°F7.6°C 84% 5.0 mph SW8.0 kmh SW 10.0 mph16.1 kmh 29.43 in996.6 mb 0.00 in0.0 mm 0.00 in0.0 mm 0.04 in1.0 mm
07:00 AM 50.6°F10.3°C 45.3°F7.4°C 82% 6.0 mph SW9.7 kmh SW 13.0 mph20.9 kmh 29.43 in996.6 mb 0.00 in0.0 mm 0.00 in0.0 mm 0.04 in1.0 mm
07:15 AM 51.8°F11.0°C 46.5°F8.1°C 82% 6.0 mph SSW9.7 kmh SSW 13.0 mph20.9 kmh 29.42 in996.3 mb 0.00 in0.0 mm 0.00 in0.0 mm 0.04 in1.0 mm
07:30 AM 53.0°F11.7°C 46.3°F7.9°C 78% 6.0 mph SSW9.7 kmh SSW 11.0 mph17.7 kmh 29.43 in996.6 mb 0.00 in0.0 mm 0.00 in0.0 mm 0.04 in1.0 mm
07:45 AM 53.3°F11.8°C 45.9°F7.7°C 76% 5.0 mph SW8.0 kmh SW 12.0 mph19.3 kmh 29.42 in996.3 mb 0.00 in0.0 mm 0.00 in0.0 mm 0.04 in1.0 mm
08:00 AM 53.9°F12.2°C 45.4°F7.4°C 73% 8.0 mph SW12.9 kmh SW 14.0 mph22.5 kmh 29.41 in995.9 mb 0.00 in0.0 mm 0.00 in0.0 mm 0.04 in1.0 mm
08:15 AM 54.5°F12.5°C 45.3°F7.4°C 71% 11.0 mph SW17.7 kmh SW 24.0 mph38.6 kmh 29.41 in995.9 mb 0.00 in0.0 mm 0.00 in0.0 mm 0.04 in1.0 mm
08:30 AM 54.7°F12.6°C 45.5°F7.5°C 71% 9.0 mph SSW14.5 kmh SSW 18.0 mph29.0 kmh 29.41 in995.9 mb 0.00 in0.0 mm 0.00 in0.0 mm 0.04 in1.0 mm
08:45 AM 55.1°F12.8°C 46.2°F7.9°C 72% 9.0 mph SW14.5 kmh SW 20.0 mph32.2 kmh 29.41 in995.9 mb 0.00 in0.0 mm 0.00 in0.0 mm 0.04 in1.0 mm
09:00 AM 54.3°F12.4°C 44.3°F6.8°C 69% 10.0 mph SSW16.1 kmh SSW 19.0 mph30.6 kmh 29.41 in995.9 mb 0.00 in0.0 mm 0.00 in0.0 mm 0.04 in1.0 mm
09:15 AM 53.9°F12.2°C 43.2°F6.2°C 67% 10.0 mph SSW16.1 kmh SSW 22.0 mph35.4 kmh 29.40 in995.6 mb 0.00 in0.0 mm 0.00 in0.0 mm 0.04 in1.0 mm
09:30 AM 55.0°F12.8°C 45.8°F7.7°C 71% 7.0 mph S11.3 kmh S 16.0 mph25.7 kmh 29.40 in995.6 mb 0.00 in0.0 mm 0.00 in0.0 mm 0.04 in1.0 mm
09:45 AM 56.3°F13.5°C 45.9°F7.7°C 68% 7.0 mph S11.3 kmh S 16.0 mph25.7 kmh 29.40 in995.6 mb 0.00 in0.0 mm 0.00 in0.0 mm 0.04 in1.0 mm
10:00 AM 56.9°F13.8°C 44.4°F6.9°C 63% 9.0 mph S14.5 kmh S 19.0 mph30.6 kmh 29.39 in995.3 mb 0.00 in0.0 mm 0.00 in0.0 mm 0.04 in1.0 mm
10:15 AM 56.5°F13.6°C 43.2°F6.2°C 61% 8.0 mph SSW12.9 kmh SSW 18.0 mph29.0 kmh 29.39 in995.3 mb 0.00 in0.0 mm 0.00 in0.0 mm 0.04 in1.0 mm
10:30 AM 55.2°F12.9°C 42.8°F6.0°C 63% 9.0 mph SSW14.5 kmh SSW 18.0 mph29.0 kmh 29.39 in995.3 mb 0.00 in0.0 mm 0.00 in0.0 mm 0.04 in1.0 mm
10:45 AM 55.1°F12.8°C 43.9°F6.6°C 66% 8.0 mph SSW12.9 kmh SSW 18.0 mph29.0 kmh 29.39 in995.3 mb 0.00 in0.0 mm 0.00 in0.0 mm 0.04 in1.0 mm
11:00 AM 54.8°F12.7°C 43.3°F6.3°C 65% 11.0 mph SW17.7 kmh SW 21.0 mph33.8 kmh 29.39 in995.3 mb 0.00 in0.0 mm 0.00 in0.0 mm 0.04 in1.0 mm
11:15 AM 54.8°F12.7°C 43.7°F6.5°C 66% 11.0 mph S17.7 kmh S 22.0 mph35.4 kmh 29.39 in995.3 mb 0.00 in0.0 mm 0.00 in0.0 mm 0.04 in1.0 mm
11:30 AM 53.6°F12.0°C 43.3°F6.3°C 68% 11.0 mph SSW17.7 kmh SSW 18.0 mph29.0 kmh 29.38 in994.9 mb 0.00 in0.0 mm 0.00 in0.0 mm 0.04 in1.0 mm
11:45 AM 53.4°F11.9°C 43.1°F6.2°C 68% 10.0 mph SW16.1 kmh SW 20.0 mph32.2 kmh 29.38 in994.9 mb 0.00 in0.0 mm 0.00 in0.0 mm 0.04 in1.0 mm
12:00 PM 53.3°F11.8°C 43.4°F6.3°C 69% 13.0 mph SSW20.9 kmh SSW 24.0 mph38.6 kmh 29.39 in995.3 mb 0.00 in0.0 mm 0.00 in0.0 mm 0.04 in1.0 mm
12:15 PM 51.9°F11.1°C 44.6°F7.0°C 76% 16.0 mph SW25.7 kmh SW 27.0 mph43.5 kmh 29.39 in995.3 mb 0.00 in0.0 mm 0.00 in0.0 mm 0.04 in1.0 mm
12:30 PM 50.4°F10.2°C 45.4°F7.4°C 83% 15.0 mph SW24.1 kmh SW 28.0 mph45.1 kmh 29.40 in995.6 mb 0.00 in0.0 mm 0.00 in0.0 mm 0.04 in1.0 mm
12:45 PM 49.8°F9.9°C 45.5°F7.5°C 85% 13.0 mph SW20.9 kmh SW 24.0 mph38.6 kmh 29.40 in995.6 mb 0.00 in0.0 mm 0.00 in0.0 mm 0.04 in1.0 mm
01:00 PM 51.1°F10.6°C 46.4°F8.0°C 84% 11.0 mph SW17.7 kmh SW 21.0 mph33.8 kmh 29.40 in995.6 mb 0.00 in0.0 mm 0.00 in0.0 mm 0.04 in1.0 mm
01:15 PM 50.7°F10.4°C 47.0°F8.3°C 87% 8.0 mph S12.9 kmh S 24.0 mph38.6 kmh 29.40 in995.6 mb 0.00 in0.0 mm 0.00 in0.0 mm 0.04 in1.0 mm
01:30 PM 51.3°F10.7°C 46.3°F7.9°C 83% 10.0 mph SSW16.1 kmh SSW 19.0 mph30.6 kmh 29.39 in995.3 mb 0.00 in0.0 mm 0.00 in0.0 mm 0.04 in1.0 mm
01:45 PM 52.2°F11.2°C 45.9°F7.7°C 79% 11.0 mph SW17.7 kmh SW 22.0 mph35.4 kmh 29.39 in995.3 mb 0.00 in0.0 mm 0.00 in0.0 mm 0.04 in1.0 mm
02:00 PM 51.8°F11.0°C 46.2°F7.9°C 81% 12.0 mph SW19.3 kmh SW 23.0 mph37.0 kmh 29.39 in995.3 mb 0.01 in0.3 mm 0.01 in0.3 mm 0.05 in1.3 mm
02:15 PM 52.9°F11.6°C 43.7°F6.5°C 71% 17.0 mph SW27.4 kmh SW 28.0 mph45.1 kmh 29.39 in995.3 mb 0.01 in0.3 mm 0.00 in0.0 mm 0.05 in1.3 mm
02:30 PM 52.7°F11.5°C 43.9°F6.6°C 72% 15.0 mph SW24.1 kmh SW 25.0 mph40.2 kmh 29.38 in994.9 mb 0.01 in0.3 mm 0.00 in0.0 mm 0.05 in1.3 mm
02:45 PM 53.0°F11.7°C 45.3°F7.4°C 75% 12.0 mph SW19.3 kmh SW 23.0 mph37.0 kmh 29.39 in995.3 mb 0.01 in0.3 mm 0.00 in0.0 mm 0.05 in1.3 mm
03:00 PM 53.5°F11.9°C 43.6°F6.4°C 69% 12.0 mph SW19.3 kmh SW 22.0 mph35.4 kmh 29.39 in995.3 mb 0.00 in0.0 mm 0.00 in0.0 mm 0.05 in1.3 mm
03:15 PM 53.6°F12.0°C 44.0°F6.7°C 70% 12.0 mph SSW19.3 kmh SSW 22.0 mph35.4 kmh 29.39 in995.3 mb 0.00 in0.0 mm 0.00 in0.0 mm 0.05 in1.3 mm
03:30 PM 53.6°F12.0°C 43.7°F6.5°C 69% 12.0 mph SW19.3 kmh SW 24.0 mph38.6 kmh 29.39 in995.3 mb 0.00 in0.0 mm 0.00 in0.0 mm 0.05 in1.3 mm
03:45 PM 53.2°F11.8°C 44.4°F6.9°C 72% 13.0 mph SW20.9 kmh SW 30.0 mph48.3 kmh 29.39 in995.3 mb 0.00 in0.0 mm 0.00 in0.0 mm 0.05 in1.3 mm
04:00 PM 51.8°F11.0°C 46.2°F7.9°C 81% 15.0 mph SW24.1 kmh SW 24.0 mph38.6 kmh 29.40 in995.6 mb 0.00 in0.0 mm 0.00 in0.0 mm 0.05 in1.3 mm
04:15 PM 51.7°F10.9°C 46.7°F8.2°C 83% 13.0 mph SW20.9 kmh SW 25.0 mph40.2 kmh 29.40 in995.6 mb 0.01 in0.3 mm 0.04 in1.0 mm 0.06 in1.5 mm
04:30 PM 52.4°F11.3°C 47.4°F8.6°C 83% 9.0 mph SW14.5 kmh SW 19.0 mph30.6 kmh 29.40 in995.6 mb 0.01 in0.3 mm 0.00 in0.0 mm 0.06 in1.5 mm
04:45 PM 52.5°F11.4°C 46.2°F7.9°C 79% 12.0 mph SW19.3 kmh SW 22.0 mph35.4 kmh 29.40 in995.6 mb 0.01 in0.3 mm 0.00 in0.0 mm 0.06 in1.5 mm
05:00 PM 52.2°F11.2°C 45.5°F7.5°C 78% 13.0 mph SW20.9 kmh SW 21.0 mph33.8 kmh 29.41 in995.9 mb 0.01 in0.3 mm 0.00 in0.0 mm 0.06 in1.5 mm
05:15 PM 51.1°F10.6°C 46.4°F8.0°C 84% 13.0 mph SW20.9 kmh SW 23.0 mph37.0 kmh 29.41 in995.9 mb 0.00 in0.0 mm 0.00 in0.0 mm 0.06 in1.5 mm
05:30 PM 49.6°F9.8°C 46.2°F7.9°C 88% 15.0 mph SW24.1 kmh SW 26.0 mph41.8 kmh 29.42 in996.3 mb 0.03 in0.8 mm 0.12 in3.0 mm 0.09 in2.3 mm
05:45 PM 49.5°F9.7°C 46.7°F8.2°C 90% 14.0 mph SW22.5 kmh SW 25.0 mph40.2 kmh 29.42 in996.3 mb 0.03 in0.8 mm 0.00 in0.0 mm 0.09 in2.3 mm
06:00 PM 49.6°F9.8°C 46.5°F8.1°C 89% 13.0 mph SW20.9 kmh SW 23.0 mph37.0 kmh 29.42 in996.3 mb 0.03 in0.8 mm 0.00 in0.0 mm 0.09 in2.3 mm
06:15 PM 48.8°F9.3°C 46.3°F7.9°C 91% 15.0 mph SW24.1 kmh SW 25.0 mph40.2 kmh 29.43 in996.6 mb 0.05 in1.3 mm 0.08 in2.0 mm 0.11 in2.8 mm
06:30 PM 48.4°F9.1°C 46.5°F8.1°C 93% 11.0 mph SW17.7 kmh SW 25.0 mph40.2 kmh 29.44 in997.0 mb 0.03 in0.8 mm 0.00 in0.0 mm 0.12 in3.0 mm
06:45 PM 47.8°F8.8°C 45.0°F7.2°C 90% 12.0 mph WSW19.3 kmh WSW 23.0 mph37.0 kmh 29.44 in997.0 mb 0.05 in1.3 mm 0.08 in2.0 mm 0.14 in3.6 mm
07:00 PM 47.5°F8.6°C 44.4°F6.9°C 89% 14.0 mph SW22.5 kmh SW 23.0 mph37.0 kmh 29.45 in997.3 mb 0.05 in1.3 mm 0.00 in0.0 mm 0.14 in3.6 mm
07:15 PM 47.3°F8.5°C 43.6°F6.4°C 87% 15.0 mph SW24.1 kmh SW 25.0 mph40.2 kmh 29.45 in997.3 mb 0.03 in0.8 mm 0.00 in0.0 mm 0.14 in3.6 mm
07:30 PM 46.9°F8.3°C 43.2°F6.2°C 87% 14.0 mph SW22.5 kmh SW 22.0 mph35.4 kmh 29.45 in997.3 mb 0.02 in0.5 mm 0.00 in0.0 mm 0.14 in3.6 mm
07:45 PM 46.7°F8.2°C 43.6°F6.4°C 89% 13.0 mph SW20.9 kmh SW 27.0 mph43.5 kmh 29.46 in997.6 mb 0.00 in0.0 mm 0.00 in0.0 mm 0.14 in3.6 mm
08:00 PM 45.8°F7.7°C 42.7°F5.9°C 89% 14.0 mph WSW22.5 kmh WSW 25.0 mph40.2 kmh 29.46 in997.6 mb 0.00 in0.0 mm 0.00 in0.0 mm 0.14 in3.6 mm
08:15 PM 45.3°F7.4°C 42.5°F5.8°C 90% 14.0 mph SW22.5 kmh SW 21.0 mph33.8 kmh 29.47 in998.0 mb 0.00 in0.0 mm 0.00 in0.0 mm 0.14 in3.6 mm
08:30 PM 45.1°F7.3°C 42.6°F5.9°C 91% 14.0 mph SW22.5 kmh SW 25.0 mph40.2 kmh 29.47 in998.0 mb 0.00 in0.0 mm 0.00 in0.0 mm 0.14 in3.6 mm
08:45 PM 45.1°F7.3°C 42.3°F5.7°C 90% 14.0 mph SW22.5 kmh SW 22.0 mph35.4 kmh 29.47 in998.0 mb 0.00 in0.0 mm 0.00 in0.0 mm 0.14 in3.6 mm
09:00 PM 45.3°F7.4°C 41.7°F5.4°C 87% 13.0 mph SW20.9 kmh SW 20.0 mph32.2 kmh 29.47 in998.0 mb 0.00 in0.0 mm 0.00 in0.0 mm 0.14 in3.6 mm
09:15 PM 45.2°F7.3°C 41.6°F5.3°C 87% 12.0 mph WSW19.3 kmh WSW 19.0 mph30.6 kmh 29.47 in998.0 mb 0.00 in0.0 mm 0.00 in0.0 mm 0.14 in3.6 mm
09:30 PM 45.2°F7.3°C 41.3°F5.2°C 86% 13.0 mph SW20.9 kmh SW 24.0 mph38.6 kmh 29.46 in997.6 mb 0.00 in0.0 mm 0.00 in0.0 mm 0.14 in3.6 mm
09:45 PM 45.3°F7.4°C 40.7°F4.8°C 84% 13.0 mph WSW20.9 kmh WSW 24.0 mph38.6 kmh 29.47 in998.0 mb 0.00 in0.0 mm 0.00 in0.0 mm 0.14 in3.6 mm
10:00 PM 44.9°F7.2°C 40.7°F4.8°C 85% 15.0 mph SW24.1 kmh SW 27.0 mph43.5 kmh 29.47 in998.0 mb 0.00 in0.0 mm 0.00 in0.0 mm 0.14 in3.6 mm
10:15 PM 44.8°F7.1°C 40.6°F4.8°C 85% 14.0 mph SW22.5 kmh SW 22.0 mph35.4 kmh 29.47 in998.0 mb 0.00 in0.0 mm 0.00 in0.0 mm 0.14 in3.6 mm
10:30 PM 44.7°F7.1°C 40.2°F4.6°C 84% 15.0 mph SW24.1 kmh SW 25.0 mph40.2 kmh 29.47 in998.0 mb 0.00 in0.0 mm 0.00 in0.0 mm 0.14 in3.6 mm
10:45 PM 44.5°F6.9°C 39.7°F4.3°C 83% 16.0 mph WSW25.7 kmh WSW 30.0 mph48.3 kmh 29.46 in997.6 mb 0.00 in0.0 mm 0.00 in0.0 mm 0.14 in3.6 mm
11:00 PM 44.4°F6.9°C 40.2°F4.6°C 85% 13.0 mph SW20.9 kmh SW 21.0 mph33.8 kmh 29.46 in997.6 mb 0.00 in0.0 mm 0.00 in0.0 mm 0.12 in3.0 mm
11:15 PM 44.1°F6.7°C 40.2°F4.6°C 86% 11.0 mph SW17.7 kmh SW 17.0 mph27.4 kmh 29.46 in997.6 mb 0.00 in0.0 mm 0.00 in0.0 mm 0.12 in3.0 mm
11:30 PM 44.0°F6.7°C 39.8°F4.3°C 85% 13.0 mph SW20.9 kmh SW 22.0 mph35.4 kmh 29.46 in997.6 mb 0.00 in0.0 mm 0.00 in0.0 mm 0.12 in3.0 mm
11:45 PM 44.0°F6.7°C 39.5°F4.2°C 84% 13.0 mph SW20.9 kmh SW 22.0 mph35.4 kmh 29.47 in998.0 mb 0.00 in0.0 mm 0.00 in0.0 mm 0.12 in3.0 mm